M I D A S
Marine Information and Data Acquisition System
Tripno 806 of the Zeeleeuw from 2004-11-18 10:02:50 to 2004-11-18 14:23:46
Back to CruiseResearch ActivitiesStationsMapUnderway DataData graphs

EquipmentUnitsComment
TimeDGPSUTC
LatitudeDGPSDM.mWGS84
LongitudeDGPSDM.mWGS84
HeadingGyrodeg 
SOGDGPSknotsSpeed over ground
COGDGPSdegCourse over ground
DepthEcho soundermeters200 kHz
Missing or incorrect values are displayed as -999
Navigation data collected by the RV Zeeleeuw from 2004-11-18 10:02:50 to 2004-11-18 14:23:46
Time Latitude Longitude Heading SOG COG Depth
2004-11-18 10:04:16 51°22.591 3°13.13 29.8 1.5 282 13.2
2004-11-18 10:05:16 51°22.591 3°13.102 26.8 0.6 261 12.6
2004-11-18 10:06:22 51°22.589 3°13.074 30.4 1.1 269 12.9
2004-11-18 10:07:26 51°22.591 3°13.049 30.3 0.8 300 13
2004-11-18 10:08:26 51°22.608 3°13.035 39.1 1.4 344 12.4
2004-11-18 10:09:23 51°22.62 3°13.027 46.8 0.9 319 13.1
2004-11-18 10:10:34 51°22.628 3°13.008 49.2 0.7 293 12.9
2004-11-18 10:11:34 51°22.631 3°12.991 51.4 0.7 286 12.5
2004-11-18 10:12:44 51°22.631 3°12.968 50.8 0.8 261 12.4
2004-11-18 10:14:02 51°22.631 3°12.939 51 1 291 13
2004-11-18 10:15:09 51°22.63 3°12.914 52.5 0.9 255 12.8
2004-11-18 10:16:08 51°22.628 3°12.893 53.5 0.8 265 13.3
2004-11-18 10:17:10 51°22.632 3°12.874 44 1 343 13.1
2004-11-18 10:18:38 51°22.691 3°12.798 315.3 4.5 292 13.1
2004-11-18 10:19:38 51°22.718 3°12.574 293.6 12 286 13.5
2004-11-18 10:20:46 51°22.807 3°12.182 300.1 14.7 291 13.7
2004-11-18 10:21:46 51°22.899 3°11.82 299.7 14.6 291 13
2004-11-18 10:23:02 51°23.011 3°11.378 300.5 14 292 12.6
2004-11-18 10:24:11 51°23.112 3°10.979 300.7 14.1 292 12.6
2004-11-18 10:25:23 51°23.23 3°10.572 310.7 14.1 302 12.9
2004-11-18 10:27:21 51°23.568 3°10.129 336.8 13.5 327 13.6
2004-11-18 10:28:38 51°23.807 3°9.859 337.1 13.8 325 14.4
2004-11-18 10:29:38 51°23.995 3°9.658 338.9 13.4 328 17.2
2004-11-18 10:30:44 51°24.179 3°9.402 325.6 13.5 312 18.1
2004-11-18 10:32:02 51°24.262 3°8.941 281.2 14.7 275 16.5
2004-11-18 10:32:59 51°24.278 3°8.577 280.8 14.4 276 14.9
2004-11-18 10:34:10 51°24.306 3°8.122 281.6 14.9 275 13.6
2004-11-18 10:36:04 51°24.35 3°7.405 282.1 14 275 12.5
2004-11-18 10:37:03 51°24.375 3°7.035 281.9 14.5 277 12.6
2004-11-18 10:38:04 51°24.399 3°6.649 282.8 14 277 12
2004-11-18 10:39:04 51°24.428 3°6.274 282.9 14 278 12.2
2004-11-18 10:40:30 51°24.46 3°5.738 281.1 14.4 274 12.3
2004-11-18 10:41:29 51°24.492 3°5.369 287.8 14.5 281 13.2
2004-11-18 10:42:36 51°24.565 3°4.966 295.9 14.2 288 13.4
2004-11-18 10:44:00 51°24.663 3°4.461 293.7 14.3 287 13.8
2004-11-18 10:45:00 51°24.724 3°4.093 291.5 14.3 284 15
2004-11-18 10:46:06 51°24.772 3°3.682 285.4 14.3 278 15.6
2004-11-18 10:47:07 51°24.8 3°3.309 283.9 14.1 276 15.7
2004-11-18 10:48:06 51°24.819 3°2.93 279.5 14.5 275 16.8
2004-11-18 10:49:15 51°24.837 3°2.489 280.4 14.5 274 17.2
2004-11-18 10:50:15 51°24.851 3°2.104 277.1 14.6 270 17.3
2004-11-18 10:51:42 51°24.844 3°1.546 275.8 14.5 270 17.4
2004-11-18 10:53:20 51°24.883 3°0.919 285.4 14.6 277 17.2
2004-11-18 10:54:26 51°24.898 3°0.494 280.3 14.3 272 16.6
2004-11-18 10:55:59 51°24.919 2°59.907 280.7 14.2 273 17.4
2004-11-18 10:57:10 51°24.935 2°59.468 280.4 13.7 273 18
2004-11-18 10:58:10 51°24.947 2°59.098 279.4 14 272 18.4
2004-11-18 10:59:14 51°24.96 2°58.702 279.3 14 270 18.7
2004-11-18 11:01:32 51°24.939 2°57.838 277.9 14.2 269 20.5
2004-11-18 11:03:34 51°25.009 2°57.085 285.6 14.5 278 24.6
2004-11-18 11:05:03 51°25.054 2°56.526 285.3 14.1 276 24.9
2004-11-18 11:06:03 51°25.084 2°56.148 285.2 14.2 279 24.5
2004-11-18 11:07:21 51°25.124 2°55.652 285.6 14.4 276 20.4
2004-11-18 11:08:35 51°25.158 2°55.191 285.4 14 276 18.7
2004-11-18 11:10:00 51°25.202 2°54.662 287.7 14 277 19.7
2004-11-18 11:11:07 51°25.235 2°54.24 286.1 14.4 280 21.9
2004-11-18 11:12:06 51°25.266 2°53.876 285.3 14.3 277 20.1
2004-11-18 11:13:10 51°25.298 2°53.477 285.5 14.2 278 21.9
2004-11-18 11:14:10 51°25.328 2°53.105 285.9 14 277 24
2004-11-18 11:15:39 51°25.37 2°52.544 285.5 14.3 277 24.3
2004-11-18 11:16:58 51°25.406 2°52.054 284.5 14.1 275 26
2004-11-18 11:17:58 51°25.438 2°51.676 285.8 14.5 278 24.1
2004-11-18 11:18:58 51°25.484 2°51.303 293.1 13.9 284 23.5
2004-11-18 11:19:55 51°25.535 2°50.955 292.2 14.3 283 23.8
2004-11-18 11:20:58 51°25.594 2°50.563 292.3 14.4 284 24.2
2004-11-18 11:21:56 51°25.649 2°50.209 292.8 14.1 284 23.6
2004-11-18 11:23:00 51°25.709 2°49.814 293.2 14.4 284 23.5
2004-11-18 11:24:06 51°25.778 2°49.413 294.8 14.3 285 23.4
2004-11-18 11:25:06 51°25.841 2°49.051 294.1 14.1 283 24.3
2004-11-18 11:26:24 51°25.911 2°48.65 305 8.4 301 24.5
2004-11-18 11:27:25 51°26.004 2°48.6 14.4 4.1 6 25
2004-11-18 11:28:40 51°26.029 2°48.606 52.6 0.2 155 24.6
2004-11-18 11:29:56 51°26.019 2°48.609 50.9 1 154 24.7
2004-11-18 11:31:38 51°25.998 2°48.596 39.9 0.9 197 24.6
2004-11-18 11:33:08 51°25.978 2°48.582 41.9 1 179 24.3
2004-11-18 11:34:36 51°25.961 2°48.57 36.2 0.7 195 24.4
2004-11-18 11:36:02 51°25.969 2°48.558 357.9 1.1 350 24.4
2004-11-18 11:37:26 51°25.943 2°48.404 222.9 7.1 220 23.8
2004-11-18 11:38:32 51°25.786 2°48.243 218.2 12.5 215 24.1
2004-11-18 11:39:53 51°25.545 2°47.897 224 14.9 224 24.4
2004-11-18 11:41:18 51°25.283 2°47.521 225.5 15 220 27
2004-11-18 11:42:45 51°25.016 2°47.135 223.6 14.4 219 26.5
2004-11-18 11:44:27 51°24.701 2°46.679 223.7 14.9 224 30.4
2004-11-18 11:46:42 51°24.283 2°46.072 225.4 15.1 227 26.7
2004-11-18 11:47:42 51°24.099 2°45.796 224.1 15 230 27.3
2004-11-18 11:48:48 51°23.895 2°45.498 224 15.2 219 27.9
2004-11-18 11:49:58 51°23.676 2°45.177 224.4 15 225 27.8
2004-11-18 11:51:18 51°23.431 2°44.812 223.5 14.6 224 28.3
2004-11-18 11:52:30 51°23.208 2°44.482 227.5 14.7 220 27
2004-11-18 11:53:32 51°23.015 2°44.201 222.8 15.4 222 27.4
2004-11-18 11:54:53 51°22.763 2°43.835 227 15.5 218 27.2
2004-11-18 11:56:23 51°22.486 2°43.43 225.4 14.9 223 25.9
2004-11-18 11:57:46 51°22.229 2°43.056 225 15.4 224 26.6
2004-11-18 11:59:28 51°21.915 2°42.604 227.7 15 225 24.9
2004-11-18 12:00:28 51°21.732 2°42.334 225 15.3 224 26
2004-11-18 12:01:40 51°21.513 2°42.02 225 14.6 224 23.4
2004-11-18 12:02:40 51°21.329 2°41.759 223 15 227 23.4
2004-11-18 12:03:39 51°21.147 2°41.5 227.3 14.7 225 26
2004-11-18 12:04:39 51°20.964 2°41.233 225 14.8 226 26.7
2004-11-18 12:05:50 51°20.747 2°40.932 224 14.3 222 26.7
2004-11-18 12:06:50 51°20.563 2°40.672 224.2 15.2 224 28.2
2004-11-18 12:07:50 51°20.381 2°40.406 224.8 14.9 220 28.4
2004-11-18 12:09:18 51°20.113 2°40.019 224.6 15.1 220 29.3
2004-11-18 12:10:21 51°19.919 2°39.734 222.7 15.4 220 28.9
2004-11-18 12:11:42 51°19.649 2°39.406 218.6 15.4 220 30.6
2004-11-18 12:12:48 51°19.428 2°39.14 218.2 14.9 214 30.4
2004-11-18 12:13:51 51°19.217 2°38.879 219.5 15.2 219 28.9
2004-11-18 12:14:59 51°18.981 2°38.629 213.2 14.9 215 28.3
2004-11-18 12:16:00 51°18.765 2°38.416 213.1 15.1 213 27.2
2004-11-18 12:17:18 51°18.488 2°38.145 212.4 15.1 212 27
2004-11-18 12:18:38 51°18.206 2°37.864 210.6 15.2 212 26.3
2004-11-18 12:19:42 51°17.981 2°37.639 211.2 15.3 216 25.6
2004-11-18 12:20:58 51°17.714 2°37.362 213.4 15.2 214 27.2
2004-11-18 12:22:06 51°17.474 2°37.121 211.1 15 209 27.6
2004-11-18 12:23:05 51°17.263 2°36.911 209.1 15 210 27.3
2004-11-18 12:24:04 51°17.088 2°36.826 171.4 8.9 176 27.9
2004-11-18 12:25:26 51°16.943 2°36.839 173.2 5.1 188 28.7
2004-11-18 12:26:28 51°16.863 2°36.807 178.5 5.1 193 28.4
2004-11-18 12:27:40 51°16.754 2°36.773 181 6 187 27.4
2004-11-18 12:28:50 51°16.645 2°36.757 166.1 4.9 180 27
2004-11-18 12:29:50 51°16.61 2°36.734 186.7 1.2 266 27.5
2004-11-18 12:31:05 51°16.597 2°36.701 185.4 1.4 224 27.3
2004-11-18 12:32:20 51°16.572 2°36.666 186.7 1.6 216 27.8
2004-11-18 12:33:27 51°16.545 2°36.634 187.8 1.8 218 27.7
2004-11-18 12:34:48 51°16.511 2°36.591 197.4 1.8 217 27.6
2004-11-18 12:35:54 51°16.484 2°36.551 207.3 2 210 27.5
2004-11-18 12:37:08 51°16.425 2°36.502 176.3 4.8 190 28.5
2004-11-18 12:38:08 51°16.32 2°36.502 163.9 7.1 170 28.8
2004-11-18 12:39:15 51°16.107 2°36.572 161.1 13.8 167 27.8
2004-11-18 12:40:22 51°15.864 2°36.667 160.2 13.9 161 22
2004-11-18 12:41:22 51°15.646 2°36.788 159.5 14.8 163 15
2004-11-18 12:42:22 51°15.428 2°36.899 162.3 13.5 164 9.6
2004-11-18 12:43:22 51°15.208 2°37.018 154.2 14.3 158 11.5
2004-11-18 12:44:36 51°14.958 2°37.214 143.6 13.6 146 11.2
2004-11-18 12:45:40 51°14.817 2°37.506 118.3 13.7 121 11.2
2004-11-18 12:46:40 51°14.697 2°37.798 122.7 13.2 123 13.8
2004-11-18 12:47:40 51°14.569 2°38.088 120.6 13.5 124 16.5
2004-11-18 12:48:38 51°14.437 2°38.367 122.7 14.3 129 18.6
2004-11-18 12:49:39 51°14.271 2°38.633 133.6 14 134 16.9
2004-11-18 12:50:39 51°14.104 2°38.884 138.9 13.4 140 11.7
2004-11-18 12:51:48 51°13.88 2°39.088 165.3 14.2 166 15.2
2004-11-18 12:52:48 51°13.642 2°39.095 189.6 14.2 188 14.7
2004-11-18 12:53:50 51°13.419 2°38.921 215.2 14.7 219 14.5
2004-11-18 12:55:10 51°13.152 2°38.627 213.6 15.3 210 14.8
2004-11-18 12:56:10 51°12.951 2°38.411 215.2 14.4 212 14.3
2004-11-18 12:57:10 51°12.745 2°38.2 212.6 15.2 211 14
2004-11-18 12:58:16 51°12.516 2°37.975 210.8 15.3 213 13.5
2004-11-18 12:59:17 51°12.307 2°37.767 213.2 13.8 211 13.8
2004-11-18 13:00:18 51°12.093 2°37.561 213.6 14.9 214 13.4
2004-11-18 13:01:16 51°11.892 2°37.361 212.2 15.4 211 13.6
2004-11-18 13:02:22 51°11.667 2°37.125 216.9 14.5 214 13.8
2004-11-18 13:03:44 51°11.386 2°36.841 216.3 14.1 215 13.7
2004-11-18 13:04:56 51°11.143 2°36.586 215.3 14.2 215 13.4
2004-11-18 13:06:17 51°10.863 2°36.299 214.7 15.5 214 12.7
2004-11-18 13:07:46 51°10.557 2°35.991 212.6 15.7 214 11.5
2004-11-18 13:08:48 51°10.326 2°35.833 199.5 13.6 197 11.6
2004-11-18 13:10:08 51°10.016 2°35.732 182.3 14.2 186 17.5
2004-11-18 13:11:14 51°9.757 2°35.759 166.8 13.9 167 19.4
2004-11-18 13:12:14 51°9.594 2°35.978 119.3 13 123 18.3
2004-11-18 13:13:28 51°9.6 2°36.39 80.5 12.7 76 17.5
2004-11-18 13:14:28 51°9.672 2°36.708 72.3 12.7 68 17.1
2004-11-18 13:15:26 51°9.744 2°37.015 73 12.9 69 18
2004-11-18 13:16:34 51°9.839 2°37.368 69.8 12.9 64 18
2004-11-18 13:17:34 51°9.921 2°37.682 69.8 12.9 63 17.9
2004-11-18 13:19:05 51°10.06 2°38.152 69.5 12.9 67 17.7
2004-11-18 13:20:06 51°10.14 2°38.474 71.7 12.8 70 17.4
2004-11-18 13:21:34 51°10.257 2°38.942 72.8 12.7 68 16.4
2004-11-18 13:22:57 51°10.362 2°39.384 72.9 13.1 69 15.7
2004-11-18 13:24:26 51°10.481 2°39.858 73 12.8 70 15.5
2004-11-18 13:25:42 51°10.583 2°40.267 72.1 13 69 14.7
2004-11-18 13:26:43 51°10.651 2°40.603 78.3 13.1 76 14.4
2004-11-18 13:27:48 51°10.722 2°40.965 73.5 13.4 69 13.6
2004-11-18 13:29:15 51°10.845 2°41.429 65.3 13.1 60 13.6
2004-11-18 13:30:27 51°10.976 2°41.778 63.8 11.7 63 13.5
2004-11-18 13:31:44 51°11.069 2°41.978 43 4.1 38 13.7
2004-11-18 13:33:08 51°11.082 2°42.015 82.8 0.6 96 13.8
2004-11-18 13:34:14 51°11.074 2°42.033 92.1 0.8 136 13.9
2004-11-18 13:35:13 51°11.068 2°42.05 84.9 0.7 105 13.8
2004-11-18 13:36:28 51°11.063 2°42.078 73.6 0.8 96 14
2004-11-18 13:37:27 51°11.064 2°42.099 63.6 0.9 91 14
2004-11-18 13:38:27 51°11.067 2°42.121 52 1 90 14.1
2004-11-18 13:39:38 51°11.076 2°42.139 39.6 0.7 37 13.9
2004-11-18 13:40:48 51°11.086 2°42.151 28 0.5 27 13.8
2004-11-18 13:41:56 51°11.102 2°42.163 25.4 0.7 56 13.7
2004-11-18 13:43:01 51°11.148 2°42.294 92.9 7.9 91 13.6
2004-11-18 13:44:06 51°11.135 2°42.607 91.4 12.9 90 14
2004-11-18 13:45:26 51°11.132 2°43.072 90.7 12.8 92 14.2
2004-11-18 13:46:34 51°11.138 2°43.465 86.1 12.7 82 13.8
2004-11-18 13:47:50 51°11.181 2°43.889 82.5 12.6 80 13.7
2004-11-18 13:48:56 51°11.253 2°44.245 72.2 12.8 68 13.8
2004-11-18 13:50:17 51°11.346 2°44.682 75.9 13 69 13.8
2004-11-18 13:51:22 51°11.415 2°45.033 77.3 12.6 75 14
2004-11-18 13:52:34 51°11.488 2°45.426 78.2 12.9 77 13.7
2004-11-18 13:53:47 51°11.564 2°45.824 78.1 13 72 13.8
2004-11-18 13:55:00 51°11.663 2°46.212 71.5 12.8 66 13.8
2004-11-18 13:56:04 51°11.752 2°46.55 71.4 13 66 13.7
2004-11-18 13:57:10 51°11.847 2°46.897 70.4 12.8 67 13.6
2004-11-18 13:58:24 51°11.952 2°47.289 70.4 13.2 68 13.4
2004-11-18 13:59:35 51°12.051 2°47.669 71.1 13.3 68 13.2
2004-11-18 14:00:50 51°12.156 2°48.073 71.8 12.9 64 13.1
2004-11-18 14:02:00 51°12.273 2°48.431 62.1 13.3 61 13.1
2004-11-18 14:03:00 51°12.382 2°48.731 63.4 13.1 62 13
2004-11-18 14:04:06 51°12.504 2°49.059 65.2 13.2 57 13.1
2004-11-18 14:05:15 51°12.63 2°49.403 65 13.1 55 12.7
2004-11-18 14:06:16 51°12.739 2°49.708 64.1 13 61 12.6
2004-11-18 14:07:22 51°12.856 2°50.038 64.8 13.1 61 13
2004-11-18 14:08:21 51°12.962 2°50.334 64.7 13.1 58 12.8
2004-11-18 14:09:31 51°13.09 2°50.686 65.1 13.3 59 12.9
2004-11-18 14:10:46 51°13.224 2°51.067 64.5 13.3 60 12.6
2004-11-18 14:11:55 51°13.349 2°51.42 64.5 13.4 60 12.4
2004-11-18 14:12:54 51°13.457 2°51.72 64.2 13.3 60 12.1
2004-11-18 14:13:56 51°13.577 2°52.028 61.6 13 57 12.2
2004-11-18 14:14:55 51°13.692 2°52.322 62.7 13.3 58 12.2
2004-11-18 14:16:18 51°13.851 2°52.736 61.7 13 57 12
2004-11-18 14:17:26 51°13.985 2°53.074 60.9 13.3 57 11.6
2004-11-18 14:18:36 51°14.123 2°53.422 62 13.4 57 11.6
2004-11-18 14:19:39 51°14.246 2°53.739 62.1 13.3 59 11.2
2004-11-18 14:21:06 51°14.336 2°54.233 75.9 13.5 76 11.2
2004-11-18 14:22:06 51°14.388 2°54.572 85.2 13.3 81 11.8
2004-11-18 14:23:05 51°14.398 2°54.894 107.6 12.8 103 12.4